Station Historical Data
Daily Summary for October 3, 2017 Units:  English    Metric   Both
« Previous Day
Next Day »
Daily Weekly Monthly Yearly Custom
  High: Low: Average:
Temperature: 77.5 °F 44.9 °F 61.4 °F
Dew Point: 53.5 °F 41.3 °F 48.3 °F
Humidity: 88% 37% 65%
Wind Speed: 10.0mph 0.0mph 1.4mph
Wind Gust: 15.0mph - -
Wind- - SW
Pressure: 30.48 in 30.36 in -
Precipitation: 0.00 in    
Historical Graphs
 
 
Tabular Data for October 3, 2017
Time Temperature Dew Point Pressure Wind Wind Speed Wind Gust Humidity Rainfall Rate (Hourly)
00:04 52.2 °F 45.2 °F 30.40 in Calm     77% 0.00 in
00:09 52.0 °F 45.4 °F 30.40 in Calm     78% 0.00 in
00:14 51.8 °F 45.2 °F 30.40 in Calm     78% 0.00 in
00:19 51.7 °F 45.1 °F 30.40 in Calm     78% 0.00 in
00:24 51.5 °F 44.9 °F 30.40 in Calm     78% 0.00 in
00:29 51.5 °F 45.2 °F 30.40 in Calm     79% 0.00 in
00:34 51.5 °F 45.2 °F 30.40 in Calm     79% 0.00 in
00:39 51.7 °F 45.1 °F 30.40 in Calm     78% 0.00 in
00:44 51.8 °F 45.2 °F 30.40 in Calm     78% 0.00 in
00:49 51.8 °F 45.2 °F 30.40 in Calm     78% 0.00 in
00:54 51.8 °F 45.2 °F 30.40 in Calm     78% 0.00 in
00:59 51.7 °F 45.1 °F 30.40 in Calm     78% 0.00 in
01:04 51.4 °F 44.8 °F 30.40 in Calm     78% 0.00 in
01:09 50.6 °F 44.0 °F 30.40 in Calm     78% 0.00 in
01:14 50.1 °F 43.8 °F 30.40 in Calm     79% 0.00 in
01:19 49.7 °F 43.8 °F 30.40 in Calm     80% 0.00 in
01:24 49.5 °F 43.9 °F 30.40 in Calm     81% 0.00 in
01:29 49.3 °F 43.7 °F 30.40 in Calm     81% 0.00 in
01:34 49.2 °F 43.6 °F 30.40 in Calm     81% 0.00 in
01:39 49.0 °F 43.7 °F 30.40 in Calm     82% 0.00 in
01:44 49.2 °F 44.3 °F 30.40 in Calm     83% 0.00 in
01:49 49.2 °F 43.9 °F 30.40 in Calm     82% 0.00 in
01:54 48.8 °F 43.5 °F 30.40 in Calm     82% 0.00 in
01:59 48.8 °F 43.9 °F 30.40 in Calm     83% 0.00 in
02:04 48.7 °F 43.8 °F 30.40 in Calm     83% 0.00 in
02:09 48.3 °F 43.4 °F 30.41 in Calm     83% 0.00 in
02:14 47.9 °F 43.0 °F 30.41 in Calm     83% 0.00 in
02:19 47.8 °F 43.2 °F 30.40 in Calm     84% 0.00 in
02:24 48.0 °F 43.7 °F 30.41 in Calm     85% 0.00 in
02:29 48.2 °F 43.6 °F 30.41 in Calm     84% 0.00 in
02:34 48.3 °F 43.7 °F 30.41 in Calm     84% 0.00 in
02:39 48.4 °F 43.8 °F 30.40 in Calm     84% 0.00 in
02:44 48.3 °F 43.4 °F 30.40 in Calm     83% 0.00 in
02:49 48.0 °F 43.1 °F 30.40 in Calm     83% 0.00 in
02:54 47.9 °F 43.3 °F 30.40 in Calm     84% 0.00 in
02:59 47.9 °F 43.3 °F 30.40 in Calm     84% 0.00 in
03:04 47.6 °F 43.0 °F 30.40 in Calm     84% 0.00 in
03:09 47.1 °F 42.5 °F 30.40 in Calm     84% 0.00 in
03:14 47.0 °F 42.4 °F 30.40 in Calm     84% 0.00 in
03:19 46.7 °F 42.4 °F 30.40 in Calm     85% 0.00 in
03:24 46.7 °F 42.4 °F 30.40 in Calm     85% 0.00 in
03:29 46.7 °F 42.4 °F 30.40 in Calm     85% 0.00 in
03:34 46.5 °F 42.2 °F 30.40 in Calm     85% 0.00 in
03:39 46.4 °F 42.4 °F 30.40 in Calm     86% 0.00 in
03:44 46.3 °F 42.3 °F 30.41 in Calm     86% 0.00 in
03:49 46.4 °F 42.4 °F 30.40 in Calm     86% 0.00 in
03:54 46.3 °F 42.3 °F 30.41 in Calm     86% 0.00 in
03:59 46.7 °F 43.0 °F 30.41 in Calm     87% 0.00 in
04:04 46.5 °F 42.5 °F 30.41 in Calm     86% 0.00 in
04:09 46.3 °F 42.3 °F 30.41 in Calm     86% 0.00 in
04:14 46.0 °F 42.0 °F 30.41 in Calm     86% 0.00 in
04:19 45.9 °F 41.9 °F 30.41 in Calm     86% 0.00 in
04:24 45.9 °F 41.9 °F 30.42 in Calm     86% 0.00 in
04:29 45.7 °F 41.8 °F 30.41 in Calm     86% 0.00 in
04:34 45.7 °F 42.1 °F 30.41 in Calm     87% 0.00 in
04:39 45.4 °F 41.5 °F 30.41 in Calm     86% 0.00 in
04:44 45.4 °F 41.8 °F 30.41 in Calm     87% 0.00 in
04:49 45.7 °F 42.1 °F 30.41 in Calm     87% 0.00 in
04:54 46.0 °F 42.3 °F 30.42 in Calm     87% 0.00 in
04:59 45.9 °F 42.2 °F 30.42 in Calm     87% 0.00 in
05:04 45.9 °F 42.2 °F 30.42 in Calm     87% 0.00 in
05:09 45.6 °F 41.7 °F 30.42 in Calm     86% 0.00 in
05:14 45.4 °F 41.8 °F 30.42 in Calm     87% 0.00 in
05:24 45.5 °F 41.9 °F 30.42 in Calm     87% 0.00 in
05:29 45.4 °F 41.8 °F 30.42 in Calm     87% 0.00 in
05:34 45.2 °F 41.6 °F 30.42 in Calm     87% 0.00 in
05:39 45.1 °F 41.5 °F 30.42 in Calm     87% 0.00 in
05:44 45.2 °F 41.6 °F 30.42 in Calm     87% 0.00 in
05:49 45.1 °F 41.5 °F 30.42 in Calm     87% 0.00 in
05:54 44.9 °F 41.3 °F 30.43 in Calm     87% 0.00 in
05:59 45.1 °F 41.8 °F 30.43 in Calm     88% 0.00 in
06:04 45.4 °F 41.8 °F 30.44 in Calm     87% 0.00 in
06:09 45.4 °F 41.8 °F 30.43 in Calm     87% 0.00 in
06:14 45.6 °F 42.3 °F 30.43 in Calm     88% 0.00 in
06:19 46.1 °F 42.4 °F 30.44 in Calm     87% 0.00 in
06:24 46.3 °F 42.3 °F 30.44 in Calm     86% 0.00 in
06:29 46.5 °F 42.5 °F 30.44 in Calm     86% 0.00 in
06:34 46.6 °F 42.6 °F 30.44 in Calm     86% 0.00 in
06:39 46.5 °F 42.5 °F 30.45 in Calm     86% 0.00 in
06:44 46.6 °F 42.6 °F 30.45 in Calm     86% 0.00 in
06:49 46.3 °F 42.0 °F 30.45 in Calm     85% 0.00 in
06:54 45.8 °F 41.5 °F 30.45 in Calm     85% 0.00 in
06:59 46.1 °F 42.1 °F 30.45 in Calm     86% 0.00 in
07:04 46.1 °F 41.8 °F 30.45 in Calm     85% 0.00 in
07:09 45.8 °F 41.9 °F 30.45 in Calm     86% 0.00 in
07:14 45.9 °F 41.9 °F 30.45 in Calm     86% 0.00 in
07:19 46.5 °F 42.5 °F 30.45 in Calm     86% 0.00 in
07:24 47.0 °F 43.0 °F 30.45 in Calm     86% 0.00 in
07:29 47.3 °F 43.0 °F 30.45 in Calm     85% 0.00 in
07:34 47.5 °F 43.2 °F 30.45 in Calm     85% 0.00 in
07:39 47.8 °F 43.2 °F 30.46 in Calm     84% 0.00 in
07:44 48.2 °F 43.3 °F 30.46 in Calm     83% 0.00 in
07:49 48.5 °F 43.6 °F 30.46 in Calm     83% 0.00 in
07:54 48.6 °F 43.7 °F 30.46 in Calm     83% 0.00 in
07:59 49.2 °F 43.9 °F 30.46 in Calm     82% 0.00 in
08:04 49.7 °F 44.4 °F 30.46 in Calm     82% 0.00 in
08:09 50.2 °F 44.6 °F 30.47 in Calm     81% 0.00 in
08:14 50.7 °F 44.8 °F 30.47 in Calm     80% 0.00 in
08:19 51.2 °F 44.9 °F 30.47 in Calm     79% 0.00 in
08:24 51.4 °F 45.1 °F 30.47 in Calm     79% 0.00 in
08:29 51.9 °F 45.3 °F 30.47 in Calm     78% 0.00 in
08:34 52.3 °F 45.6 °F 30.47 in Calm     78% 0.00 in
08:39 53.0 °F 46.0 °F 30.47 in Calm     77% 0.00 in
08:44 53.9 °F 46.5 °F 30.47 in Calm     76% 0.00 in
08:49 54.9 °F 46.8 °F 30.47 in Calm     74% 0.00 in
08:54 55.6 °F 47.1 °F 30.47 in Calm     73% 0.00 in
08:59 56.5 °F 47.6 °F 30.47 in Calm     72% 0.00 in
09:04 56.9 °F 47.6 °F 30.47 in Calm     71% 0.00 in
09:09 57.5 °F 47.8 °F 30.47 in Calm     70% 0.00 in
09:14 57.9 °F 48.2 °F 30.48 in Calm     70% 0.00 in
09:19 58.8 °F 48.3 °F 30.48 in Calm   2.0 mph 68% 0.00 in
09:24 59.4 °F 48.4 °F 30.48 in SSW 1.0 mph 3.0 mph 67% 0.00 in
09:29 59.9 °F 48.5 °F 30.48 in Calm   3.0 mph 66% 0.00 in
09:34 60.7 °F 49.3 °F 30.48 in Calm   3.0 mph 66% 0.00 in
09:39 61.4 °F 49.1 °F 30.48 in Calm   3.0 mph 64% 0.00 in
09:44 62.2 °F 49.4 °F 30.48 in SSW 1.0 mph 3.0 mph 63% 0.00 in
09:49 63.1 °F 50.7 °F 30.47 in South 1.0 mph 4.0 mph 64% 0.00 in
09:54 63.8 °F 50.5 °F 30.47 in SW 4.0 mph 5.0 mph 62% 0.00 in
09:59 64.3 °F 50.6 °F 30.47 in Calm   6.0 mph 61% 0.00 in
10:04 64.8 °F 51.0 °F 30.46 in SSW 6.0 mph 7.0 mph 61% 0.00 in
10:09 65.1 °F 50.9 °F 30.46 in SSW 3.0 mph 9.0 mph 60% 0.00 in
10:14 65.3 °F 51.1 °F 30.46 in SSW 4.0 mph 9.0 mph 60% 0.00 in
10:19 65.8 °F 51.1 °F 30.47 in SSW 4.0 mph 9.0 mph 59% 0.00 in
10:24 66.8 °F 51.5 °F 30.47 in WSW 1.0 mph 8.0 mph 58% 0.00 in
10:29 67.6 °F 51.8 °F 30.47 in SSW 1.0 mph 8.0 mph 57% 0.00 in
10:34 68.0 °F 51.7 °F 30.47 in SSW 4.0 mph 7.0 mph 56% 0.00 in
10:39 68.7 °F 51.9 °F 30.47 in SSW 3.0 mph 7.0 mph 55% 0.00 in
10:44 68.3 °F 50.5 °F 30.47 in SSW 4.0 mph 9.0 mph 53% 0.00 in
10:49 68.8 °F 51.0 °F 30.47 in SSW 4.0 mph 9.0 mph 53% 0.00 in
10:54 69.2 °F 50.8 °F 30.46 in SSW 4.0 mph 9.0 mph 52% 0.00 in
10:59 69.9 °F 53.5 °F 30.46 in SSW 3.0 mph 7.0 mph 56% 0.00 in
11:04 70.4 °F 52.4 °F 30.46 in SSW 4.0 mph 8.0 mph 53% 0.00 in
11:09 70.6 °F 51.6 °F 30.46 in SSW 4.0 mph 10.0 mph 51% 0.00 in
11:14 70.8 °F 52.3 °F 30.46 in SSW 5.0 mph 10.0 mph 52% 0.00 in
11:19 71.4 °F 52.3 °F 30.46 in SW 4.0 mph 9.0 mph 51% 0.00 in
11:24 71.5 °F 52.4 °F 30.46 in SW 5.0 mph 10.0 mph 51% 0.00 in
11:29 71.8 °F 52.7 °F 30.46 in SW 1.0 mph 9.0 mph 51% 0.00 in
11:34 72.7 °F 52.4 °F 30.45 in Calm   8.0 mph 49% 0.00 in
11:39 72.7 °F 51.3 °F 30.45 in SSW 3.0 mph 8.0 mph 47% 0.00 in
11:44 72.8 °F 53.1 °F 30.45 in SW 4.0 mph 9.0 mph 50% 0.00 in
11:49 73.2 °F 51.2 °F 30.45 in SW 5.0 mph 14.0 mph 46% 0.00 in
11:54 73.4 °F 52.5 °F 30.45 in SW 4.0 mph 14.0 mph 48% 0.00 in
11:59 73.3 °F 51.3 °F 30.44 in SW 4.0 mph 11.0 mph 46% 0.00 in
12:04 73.4 °F 51.4 °F 30.44 in SW 1.0 mph 8.0 mph 46% 0.00 in
12:09 73.4 °F 51.4 °F 30.44 in SW 4.0 mph 8.0 mph 46% 0.00 in
12:14 73.6 °F 51.5 °F 30.44 in West 5.0 mph 11.0 mph 46% 0.00 in
12:19 73.5 °F 50.9 °F 30.44 in SW 2.0 mph 13.0 mph 45% 0.00 in
12:24 74.0 °F 51.3 °F 30.44 in SW 4.0 mph 11.0 mph 45% 0.00 in
12:29 73.3 °F 50.1 °F 30.44 in WSW 3.0 mph 15.0 mph 44% 0.00 in
12:34 73.8 °F 51.1 °F 30.44 in SW 5.0 mph 8.0 mph 45% 0.00 in
12:44 74.3 °F 51.6 °F 30.44 in WSW 5.0 mph 12.0 mph 45% 0.00 in
12:49 73.9 °F 50.6 °F 30.44 in WSW 6.0 mph 12.0 mph 44% 0.00 in
12:54 74.2 °F 50.9 °F 30.44 in WSW 6.0 mph 14.0 mph 44% 0.00 in
12:59 74.1 °F 51.4 °F 30.44 in WSW 6.0 mph 14.0 mph 45% 0.00 in
13:04 74.9 °F 52.1 °F 30.44 in WSW 8.0 mph 9.0 mph 45% 0.00 in
13:09 74.8 °F 53.2 °F 30.43 in SW 5.0 mph 9.0 mph 47% 0.00 in
13:14 75.1 °F 51.1 °F 30.43 in SW 2.0 mph 8.0 mph 43% 0.00 in
13:19 75.1 °F 52.3 °F 30.43 in SSW 4.0 mph 11.0 mph 45% 0.00 in
13:24 75.0 °F 52.2 °F 30.43 in West 6.0 mph 9.0 mph 45% 0.00 in
13:29 74.8 °F 51.4 °F 30.44 in West 6.0 mph 13.0 mph 44% 0.00 in
13:34 74.7 °F 50.7 °F 30.44 in West 4.0 mph 11.0 mph 43% 0.00 in
13:39 75.2 °F 52.4 °F 30.44 in WSW 5.0 mph 12.0 mph 45% 0.00 in
13:44 75.6 °F 51.5 °F 30.44 in WSW 5.0 mph 12.0 mph 43% 0.00 in
13:49 75.1 °F 50.4 °F 30.43 in WSW 5.0 mph 11.0 mph 42% 0.00 in
13:54 75.3 °F 50.6 °F 30.43 in WSW 5.0 mph 11.0 mph 42% 0.00 in
13:59 75.3 °F 50.6 °F 30.43 in West 6.0 mph 11.0 mph 42% 0.00 in
14:04 75.5 °F 51.4 °F 30.43 in SSW 3.0 mph 9.0 mph 43% 0.00 in
14:09 75.8 °F 51.7 °F 30.43 in WSW 5.0 mph 12.0 mph 43% 0.00 in
14:14 76.1 °F 52.0 °F 30.43 in WSW 4.0 mph 12.0 mph 43% 0.00 in
14:19 76.2 °F 52.1 °F 30.43 in West 4.0 mph 7.0 mph 43% 0.00 in
14:24 76.2 °F 50.8 °F 30.42 in WSW 2.0 mph 8.0 mph 41% 0.00 in
14:29 75.7 °F 51.0 °F 30.43 in WSW 6.0 mph 9.0 mph 42% 0.00 in
14:34 76.1 °F 50.0 °F 30.42 in WSW 4.0 mph 8.0 mph 40% 0.00 in
14:39 76.2 °F 52.1 °F 30.42 in SW 6.0 mph 9.0 mph 43% 0.00 in
14:44 76.0 °F 50.6 °F 30.42 in WSW 5.0 mph 9.0 mph 41% 0.00 in
14:54 76.2 °F 49.4 °F 30.42 in WSW 7.0 mph 11.0 mph 39% 0.00 in
14:59 76.2 °F 48.7 °F 30.42 in WSW 6.0 mph 11.0 mph 38% 0.00 in
15:04 76.4 °F 50.3 °F 30.42 in SW 10.0 mph 11.0 mph 40% 0.00 in
15:14 77.0 °F 50.1 °F 30.41 in WSW 4.0 mph 11.0 mph 39% 0.00 in
15:19 77.5 °F 51.3 °F 30.41 in WSW 3.0 mph 7.0 mph 40% 0.00 in
15:24 76.8 °F 48.6 °F 30.41 in WSW 4.0 mph 10.0 mph 37% 0.00 in
15:29 76.5 °F 49.0 °F 30.41 in SW 4.0 mph 10.0 mph 38% 0.00 in
15:34 76.4 °F 49.6 °F 30.41 in WSW 10.0 mph 10.0 mph 39% 0.00 in
15:39 77.0 °F 51.5 °F 30.41 in WSW 5.0 mph 10.0 mph 41% 0.00 in
15:44 77.0 °F 49.4 °F 30.41 in WSW 3.0 mph 8.0 mph 38% 0.00 in
15:49 77.2 °F 51.0 °F 30.41 in WSW 5.0 mph 9.0 mph 40% 0.00 in
15:54 77.1 °F 50.2 °F 30.40 in WSW 4.0 mph 8.0 mph 39% 0.00 in
15:59 77.0 °F 50.8 °F 30.40 in WSW 3.0 mph 10.0 mph 40% 0.00 in
16:04 77.0 °F 51.5 °F 30.40 in SW 4.0 mph 9.0 mph 41% 0.00 in
16:09 76.9 °F 50.1 °F 30.40 in WSW 4.0 mph 9.0 mph 39% 0.00 in
16:14 76.8 °F 50.0 °F 30.40 in WSW 4.0 mph 9.0 mph 39% 0.00 in
16:19 76.8 °F 50.6 °F 30.40 in SW 5.0 mph 9.0 mph 40% 0.00 in
16:24 76.7 °F 51.2 °F 30.39 in SW 4.0 mph 9.0 mph 41% 0.00 in
16:29 76.9 °F 51.4 °F 30.39 in SW 3.0 mph 7.0 mph 41% 0.00 in
16:34 77.1 °F 52.2 °F 30.39 in WSW 3.0 mph 6.0 mph 42% 0.00 in
16:39 76.9 °F 50.7 °F 30.39 in SW 2.0 mph 7.0 mph 40% 0.00 in
16:44 76.7 °F 51.2 °F 30.39 in WSW 4.0 mph 7.0 mph 41% 0.00 in
16:49 76.4 °F 51.0 °F 30.39 in WSW 2.0 mph 7.0 mph 41% 0.00 in
16:59 76.4 °F 51.0 °F 30.39 in SSW 5.0 mph 8.0 mph 41% 0.00 in
17:04 76.0 °F 50.6 °F 30.39 in West 2.0 mph 7.0 mph 41% 0.00 in
17:09 76.0 °F 50.6 °F 30.38 in SW 4.0 mph 7.0 mph 41% 0.00 in
17:14 75.9 °F 51.2 °F 30.38 in SW 3.0 mph 7.0 mph 42% 0.00 in
17:19 75.7 °F 50.3 °F 30.38 in SW 3.0 mph 7.0 mph 41% 0.00 in
17:24 75.4 °F 50.7 °F 30.38 in WSW 3.0 mph 7.0 mph 42% 0.00 in
17:29 75.1 °F 51.1 °F 30.38 in WSW 3.0 mph 6.0 mph 43% 0.00 in
17:34 75.0 °F 50.3 °F 30.38 in SW 2.0 mph 5.0 mph 42% 0.00 in
17:39 74.9 °F 50.9 °F 30.38 in WSW 2.0 mph 6.0 mph 43% 0.00 in
17:44 74.5 °F 50.5 °F 30.38 in WSW 2.0 mph 6.0 mph 43% 0.00 in
17:49 74.2 °F 50.9 °F 30.38 in Calm   3.0 mph 44% 0.00 in
17:54 73.9 °F 51.2 °F 30.38 in WSW 1.0 mph 3.0 mph 45% 0.00 in
17:59 73.7 °F 51.0 °F 30.38 in Calm   2.0 mph 45% 0.00 in
18:04 73.5 °F 50.9 °F 30.38 in SW 3.0 mph 4.0 mph 45% 0.00 in
18:09 73.2 °F 51.2 °F 30.38 in WSW 1.0 mph 4.0 mph 46% 0.00 in
18:14 72.9 °F 50.9 °F 30.38 in SW 1.0 mph 3.0 mph 46% 0.00 in
18:19 72.6 °F 51.2 °F 30.38 in Calm   3.0 mph 47% 0.00 in
18:24 72.4 °F 51.6 °F 30.38 in Calm   2.0 mph 48% 0.00 in
18:29 71.8 °F 51.6 °F 30.38 in Calm     49% 0.00 in
18:34 71.1 °F 51.0 °F 30.38 in Calm     49% 0.00 in
18:39 70.6 °F 51.1 °F 30.38 in Calm     50% 0.00 in
18:44 70.4 °F 50.9 °F 30.38 in Calm     50% 0.00 in
18:49 69.7 °F 51.3 °F 30.38 in Calm     52% 0.00 in
18:54 69.0 °F 51.2 °F 30.38 in Calm     53% 0.00 in
18:59 68.2 °F 50.9 °F 30.38 in Calm     54% 0.00 in
19:04 67.6 °F 51.3 °F 30.38 in Calm     56% 0.00 in
19:09 67.1 °F 51.4 °F 30.38 in Calm     57% 0.00 in
19:14 66.9 °F 51.2 °F 30.38 in Calm     57% 0.00 in
19:19 66.7 °F 51.5 °F 30.37 in Calm     58% 0.00 in
19:24 66.3 °F 51.5 °F 30.37 in Calm     59% 0.00 in
19:29 65.8 °F 51.5 °F 30.37 in Calm     60% 0.00 in
19:34 65.6 °F 51.3 °F 30.37 in Calm     60% 0.00 in
19:39 65.2 °F 51.4 °F 30.37 in Calm     61% 0.00 in
19:44 64.9 °F 51.6 °F 30.37 in Calm     62% 0.00 in
19:49 64.8 °F 51.0 °F 30.37 in Calm     61% 0.00 in
19:59 64.2 °F 51.3 °F 30.37 in Calm     63% 0.00 in
20:04 63.9 °F 51.5 °F 30.37 in Calm     64% 0.00 in
20:09 63.7 °F 51.7 °F 30.37 in Calm     65% 0.00 in
20:14 63.7 °F 51.7 °F 30.37 in Calm     65% 0.00 in
20:19 63.7 °F 51.7 °F 30.37 in Calm     65% 0.00 in
20:24 64.0 °F 51.6 °F 30.37 in Calm     64% 0.00 in
20:29 64.1 °F 51.7 °F 30.37 in Calm     64% 0.00 in
20:34 63.7 °F 52.1 °F 30.37 in Calm     66% 0.00 in
20:39 63.7 °F 52.1 °F 30.37 in Calm     66% 0.00 in
20:44 64.0 °F 52.4 °F 30.37 in Calm     66% 0.00 in
20:49 64.1 °F 52.5 °F 30.37 in Calm   1.0 mph 66% 0.00 in
20:54 64.1 °F 52.5 °F 30.37 in Calm   1.0 mph 66% 0.00 in
20:59 64.0 °F 52.8 °F 30.37 in Calm   2.0 mph 67% 0.00 in
21:04 63.8 °F 52.6 °F 30.37 in SSW 1.0 mph 1.0 mph 67% 0.00 in
21:09 63.5 °F 52.7 °F 30.37 in Calm   1.0 mph 68% 0.00 in
21:14 63.5 °F 53.1 °F 30.37 in Calm   1.0 mph 69% 0.00 in
21:19 63.3 °F 53.0 °F 30.37 in Calm     69% 0.00 in
21:24 63.2 °F 52.9 °F 30.37 in Calm     69% 0.00 in
21:29 63.2 °F 53.3 °F 30.37 in Calm     70% 0.00 in
21:34 63.2 °F 53.3 °F 30.38 in Calm     70% 0.00 in
21:39 63.0 °F 53.1 °F 30.38 in Calm     70% 0.00 in
21:44 62.7 °F 53.2 °F 30.38 in Calm     71% 0.00 in
21:49 62.4 °F 52.9 °F 30.38 in Calm     71% 0.00 in
21:54 62.4 °F 53.3 °F 30.38 in Calm     72% 0.00 in
21:59 62.4 °F 53.3 °F 30.37 in Calm     72% 0.00 in
22:04 62.3 °F 53.2 °F 30.37 in Calm     72% 0.00 in
22:09 62.1 °F 53.0 °F 30.37 in Calm     72% 0.00 in
22:14 61.9 °F 53.1 °F 30.37 in Calm     73% 0.00 in
22:19 61.6 °F 52.9 °F 30.37 in Calm     73% 0.00 in
22:24 61.5 °F 52.8 °F 30.37 in Calm     73% 0.00 in
22:29 61.4 °F 52.7 °F 30.38 in Calm     73% 0.00 in
22:34 61.3 °F 52.6 °F 30.38 in Calm     73% 0.00 in
22:39 61.0 °F 52.3 °F 30.38 in Calm     73% 0.00 in
22:44 61.1 °F 52.4 °F 30.38 in Calm     73% 0.00 in
22:49 60.8 °F 52.1 °F 30.37 in Calm     73% 0.00 in
22:54 60.8 °F 52.1 °F 30.38 in Calm   6.0 mph 73% 0.00 in
22:59 61.3 °F 52.2 °F 30.38 in Calm   3.0 mph 72% 0.00 in
23:04 61.8 °F 52.3 °F 30.37 in SSW 3.0 mph 5.0 mph 71% 0.00 in
23:09 62.4 °F 52.5 °F 30.37 in SSE 1.0 mph 4.0 mph 70% 0.00 in
23:14 63.1 °F 52.8 °F 30.37 in South 2.0 mph 6.0 mph 69% 0.00 in
23:19 63.7 °F 52.9 °F 30.37 in SSW 2.0 mph 6.0 mph 68% 0.00 in
23:24 64.2 °F 53.0 °F 30.37 in SSW 2.0 mph 6.0 mph 67% 0.00 in
23:29 64.6 °F 53.0 °F 30.37 in SSW 3.0 mph 7.0 mph 66% 0.00 in
23:34 64.8 °F 53.2 °F 30.36 in SSW 3.0 mph 7.0 mph 66% 0.00 in
23:39 64.9 °F 53.3 °F 30.36 in SSW 3.0 mph 6.0 mph 66% 0.00 in
23:44 64.8 °F 53.2 °F 30.36 in SSW 1.0 mph 5.0 mph 66% 0.00 in
23:49 64.8 °F 53.2 °F 30.36 in South 2.0 mph 8.0 mph 66% 0.00 in
23:54 64.8 °F 53.2 °F 30.36 in SSW 2.0 mph 8.0 mph 66% 0.00 in
23:59 64.8 °F 53.2 °F 30.36 in Calm   8.0 mph 66% 0.00 in
Buffalo, New York, USA
Compliments of Weather Underground - 2.5 mb